Hauptseite
METAR-TAF:

METAR-TAF

Flughäfen :

Farnborough, England

Farnborough Airfield

Breite: 51-17N, Länge: 000-46W, Höhe: 65 m

Beobachtung

Neuester Wetterbericht von vor 4 Stunden und 27 Minuten, um 20:50 UTC
Wind 9 kt aus West/Südwest
Temperatur 3°C
Luftfeuchtigkeit 87%
Luftdruck 1010 hPa
Sichtweite 10 km oder mehr
Leicht bewölkt in der Höhe von 2800 ft

METAR: EGLF 192050Z 24009KT 9999 FEW028 03/01 Q1010

Zeit: 01:17 (01:17 UTC)

Prognose

Neuester Wetterbericht von vor 8 Stunden und 12 Minuten, um 17:05 UTC
Gültige Prognose vom 19 um 18 UTC bis 19 um 22 UTC
Wind 8 kt aus Südwest
Sichtweite 10 km oder mehr
Leicht bewölkt in der Höhe von 3000 ft

TAF: EGLF 191705Z 1918/1922 23008KT 9999 FEW030

Wetterbeobachtungen und Prognosen von mehr als 4000 Flughäfen (METAR und TAF Bericht).

Die verfügbaren Stationen werden durch gelbe und rote Markierungen auf der Karte dargestellt.

Führen Sie die Maus auf sie, um den Namen der Station zu sehen.

Darauf klicken, um die Beobachtung von Wetterbeobachtungen und Prognosen zu sehen.

Um die Karte zu ändern : klicken Sie auf den grünen Tasten mit einem schwarzen Kreuz Zum Vergrößern, auf den grünen Button mit einem Gedankenstrich zu verkleinern, oder auf die grünen Pfeile für benachbarte Karten.


METAR-TAF: